Terminal Aerodrome Forecast
Issued by NWS Billings, MT

Current Version | Previous Version | Text Only | Print | Product List | Glossary On
Versions: 1 2 3 4 5 6 7 8 9 10 11 12 13 14 15 16 17 18
000
FTUS45 KBYZ 221736
TAFSHR
TAF
KSHR 221736Z 2218/2318 32016G24KT P6SM BKN090
     FM222000 35012KT P6SM VCSH BKN035 OVC050
     FM230000 VRB04KT 6SM -SN BKN020 OVC030
     FM231100 07010KT 3SM -SN BR BKN020 OVC030=

USA.gov is the U.S. government's official web portal to all federal, state and local government web resources and services.